createdAt,value
2018-09-22T00:04:57.712Z,5.47
2018-09-22T00:09:58.432Z,7.10
2018-09-22T00:14:56.415Z,10.50
2018-09-22T00:19:54.325Z,3.00
2018-09-22T00:24:52.517Z,9.50
2018-09-22T00:29:50.432Z,5.40
2018-09-22T00:34:48.156Z,3.03
2018-09-22T00:39:49.449Z,5.40
2018-09-22T00:44:47.403Z,8.40
2018-09-22T00:49:45.143Z,15.97
2018-09-22T00:54:42.984Z,3.67
2018-09-22T00:59:41.064Z,12.37
2018-09-22T01:04:39.092Z,4.50
2018-09-22T01:09:42.149Z,3.57
2018-09-22T01:14:40.831Z,3.80
2018-09-22T01:19:38.871Z,4.93
2018-09-22T01:24:37.314Z,5.00
2018-09-22T01:29:35.680Z,7.97
2018-09-22T01:34:33.795Z,5.03
2018-09-22T01:39:37.938Z,4.67
2018-09-22T01:44:35.909Z,8.23
2018-09-22T01:49:33.820Z,12.83
2018-09-22T01:54:31.883Z,7.33
2018-09-22T01:59:29.917Z,4.23
2018-09-22T02:04:28.008Z,5.70
2018-09-22T02:09:34.031Z,7.57
2018-09-22T02:14:32.383Z,12.70
2018-09-22T02:19:39.788Z,9.17
2018-09-22T02:24:37.805Z,6.67
2018-09-22T02:29:36.020Z,12.03
2018-09-22T02:34:34.088Z,5.93
2018-09-22T02:39:37.406Z,2.77
2018-09-22T02:44:35.657Z,8.00
2018-09-22T02:49:33.498Z,6.50
2018-09-22T02:54:31.619Z,8.93
2018-09-22T02:59:29.461Z,10.53
2018-09-22T03:04:27.640Z,5.40
2018-09-22T03:09:38.051Z,10.87
2018-09-22T03:14:36.488Z,3.20
2018-09-22T03:19:34.407Z,9.63
2018-09-22T03:24:32.390Z,6.30
2018-09-22T03:29:30.396Z,6.43
2018-09-22T03:34:28.301Z,9.93
2018-09-22T03:39:31.248Z,10.13
2018-09-22T03:44:29.792Z,20.07
2018-09-22T03:49:28.057Z,8.50
2018-09-22T03:54:25.969Z,9.07
2018-09-22T03:59:24.057Z,9.50
2018-09-22T04:04:22.458Z,10.53
2018-09-22T04:09:29.630Z,15.07
2018-09-22T04:14:27.553Z,15.40
2018-09-22T04:19:25.516Z,7.73
2018-09-22T04:24:23.346Z,20.23
2018-09-22T04:29:21.590Z,10.43
2018-09-22T04:34:19.828Z,12.30
2018-09-22T04:39:18.967Z,9.67
2018-09-22T04:44:18.280Z,16.03
2018-09-22T04:49:16.500Z,19.60
2018-09-22T04:54:14.703Z,15.77
2018-09-22T04:59:12.732Z,13.47
2018-09-22T05:04:10.716Z,10.60
2018-09-22T05:09:12.381Z,13.50
2018-09-22T05:14:10.869Z,28.87
2018-09-22T05:19:08.972Z,10.07
2018-09-22T05:24:06.852Z,19.30
2018-09-22T05:29:05.158Z,11.07
2018-09-22T05:34:03.090Z,7.13
2018-09-22T05:39:01.903Z,15.57
2018-09-22T05:44:00.903Z,10.90
2018-09-22T05:49:00.228Z,11.43
2018-09-22T05:53:58.383Z,15.77
2018-09-22T05:58:56.338Z,5.57
2018-09-22T06:03:54.525Z,10.73
2018-09-22T06:08:54.201Z,15.63
2018-09-22T06:13:54.999Z,17.10
2018-09-22T06:18:54.343Z,13.50
2018-09-22T06:23:54.202Z,10.10
2018-09-22T06:28:55.361Z,10.93
2018-09-22T06:33:57.057Z,8.33
2018-09-22T06:38:57.942Z,12.83
2018-09-22T06:43:59.540Z,24.43
2018-09-22T06:48:58.367Z,15.20
2018-09-22T06:53:57.956Z,9.97
2018-09-22T06:58:57.695Z,8.53
2018-09-22T07:03:58.502Z,16.20
2018-09-22T07:08:57.158Z,8.37
2018-09-22T07:13:58.346Z,10.60
2018-09-22T07:18:58.227Z,10.60
2018-09-22T07:23:57.073Z,29.67
2018-09-22T07:28:56.915Z,14.27
2018-09-22T07:33:55.510Z,13.87
2018-09-22T07:38:56.964Z,23.70
2018-09-22T07:43:56.699Z,24.23
2018-09-22T07:48:55.784Z,17.83
2018-09-22T07:53:59.966Z,9.60
2018-09-22T07:58:59.890Z,12.93
2018-09-22T08:03:59.669Z,9.40
2018-09-22T08:08:59.809Z,14.43
2018-09-22T08:14:04.139Z,16.20
2018-09-22T08:19:06.850Z,13.53
2018-09-22T08:24:08.499Z,12.80
2018-09-22T08:29:09.358Z,16.57
2018-09-22T08:34:09.645Z,15.50
2018-09-22T08:39:17.852Z,19.37
2018-09-22T08:44:18.454Z,16.70
2018-09-22T08:49:20.559Z,16.17
2018-09-22T08:54:21.406Z,9.07
2018-09-22T08:59:22.706Z,9.13
2018-09-22T09:04:27.122Z,10.43
2018-09-22T09:09:33.397Z,12.93
2018-09-22T09:14:36.579Z,8.17
2018-09-22T09:19:42.307Z,9.77
2018-09-22T09:24:44.669Z,15.23
2018-09-22T09:29:49.558Z,7.77
2018-09-22T09:34:48.852Z,12.80
2018-09-22T09:40:01.459Z,4.03
2018-09-22T09:45:04.226Z,10.27
2018-09-22T09:50:08.460Z,10.03
2018-09-22T09:55:09.845Z,5.90
2018-09-22T10:00:11.156Z,21.27
2018-09-22T10:05:11.558Z,13.73
2018-09-22T10:10:12.992Z,7.70
2018-09-22T10:15:16.091Z,4.43
2018-09-22T10:20:18.658Z,2.47
2018-09-22T10:25:17.719Z,5.03
2018-09-22T10:30:22.515Z,7.50
2018-09-22T10:35:25.199Z,15.53
2018-09-22T10:40:30.106Z,9.77
2018-09-22T10:45:44.328Z,9.53
2018-09-22T10:50:49.198Z,13.63
2018-09-22T10:55:56.318Z,2.87
2018-09-22T11:00:59.852Z,14.07
2018-09-22T11:06:02.405Z,13.03
2018-09-22T11:11:06.625Z,9.17
2018-09-22T11:16:06.385Z,10.50
2018-09-22T11:21:14.674Z,9.13
2018-09-22T11:26:17.177Z,8.70
2018-09-22T11:31:31.763Z,7.73
2018-09-22T11:36:33.060Z,6.60
2018-09-22T11:41:32.367Z,6.87
2018-09-22T11:46:31.172Z,5.90
2018-09-22T11:51:33.658Z,3.73
2018-09-22T11:56:34.307Z,6.97
2018-09-22T12:01:36.504Z,7.03
2018-09-22T12:06:36.909Z,5.87
2018-09-22T12:11:37.242Z,3.27
2018-09-22T12:16:36.505Z,9.77
2018-09-22T12:21:40.076Z,8.50
2018-09-22T12:26:41.612Z,12.03
2018-09-22T12:31:44.140Z,2.67
2018-09-22T12:36:42.946Z,7.43
2018-09-22T12:41:44.742Z,3.30
2018-09-22T12:46:47.117Z,4.17
2018-09-22T12:51:48.259Z,8.47
2018-09-22T12:56:47.580Z,3.10
2018-09-22T13:01:48.144Z,5.03
2018-09-22T13:06:48.300Z,4.20
2018-09-22T13:11:50.295Z,1.83
2018-09-22T13:16:51.971Z,3.97
2018-09-22T13:21:54.469Z,1.93
2018-09-22T13:26:54.013Z,8.57
2018-09-22T13:31:58.815Z,3.93
2018-09-22T13:37:03.974Z,1.77
2018-09-22T13:42:05.002Z,4.17
2018-09-22T13:47:05.825Z,6.53
2018-09-22T13:52:04.348Z,2.90
2018-09-22T13:57:05.570Z,2.87
2018-09-22T14:02:05.592Z,11.93
2018-09-22T14:07:05.084Z,2.83
2018-09-22T14:12:05.372Z,3.00
2018-09-22T14:17:08.889Z,3.57
2018-09-22T14:22:08.840Z,7.37
2018-09-22T14:27:08.963Z,4.20
2018-09-22T14:32:09.809Z,6.63
2018-09-22T14:37:12.032Z,4.13
2018-09-22T14:42:12.248Z,1.77
2018-09-22T14:47:11.142Z,4.23
2018-09-22T14:52:10.448Z,10.00
2018-09-22T14:57:10.352Z,6.93
2018-09-22T15:02:11.087Z,2.60
2018-09-22T15:07:09.527Z,2.50
2018-09-22T15:12:15.440Z,3.43
2018-09-22T15:17:14.686Z,1.43
2018-09-22T15:22:14.786Z,8.10
2018-09-22T15:27:16.967Z,3.63
2018-09-22T15:32:16.772Z,7.20
2018-09-22T15:37:15.240Z,1.80
2018-09-22T15:42:14.287Z,8.27
2018-09-22T15:47:14.976Z,10.10
2018-09-22T15:52:17.830Z,11.00
2018-09-22T15:57:18.255Z,6.97
2018-09-22T16:02:17.443Z,4.53
2018-09-22T16:07:18.158Z,7.83
2018-09-22T16:12:19.185Z,10.00
2018-09-22T16:17:18.444Z,1.37
2018-09-22T16:22:18.653Z,2.10
2018-09-22T16:27:19.052Z,1.73
2018-09-22T16:32:18.809Z,4.30
2018-09-22T16:37:20.747Z,10.10
2018-09-22T16:42:20.989Z,3.70
2018-09-22T16:47:21.332Z,3.33
2018-09-22T16:52:20.272Z,7.43
2018-09-22T16:57:20.085Z,3.67
2018-09-22T17:02:20.831Z,7.90
2018-09-22T17:07:20.318Z,4.63
2018-09-22T17:12:19.338Z,2.20
2018-09-22T17:17:21.719Z,4.33
2018-09-22T17:22:20.899Z,2.97
2018-09-22T17:27:22.176Z,2.40
2018-09-22T17:32:21.281Z,5.13
2018-09-22T17:37:19.952Z,3.20
2018-09-22T17:42:19.060Z,2.97
2018-09-22T17:47:18.691Z,6.63
2018-09-22T17:52:17.279Z,3.97
2018-09-22T17:57:16.081Z,4.30
2018-09-22T18:02:14.359Z,9.53
2018-09-22T18:07:12.482Z,4.60
2018-09-22T18:12:11.513Z,4.13
2018-09-22T18:17:11.215Z,8.00
2018-09-22T18:22:09.776Z,5.27
2018-09-22T18:27:08.792Z,6.80
2018-09-22T18:32:09.235Z,6.07
2018-09-22T18:37:08.599Z,5.63
2018-09-22T18:42:07.118Z,7.20
2018-09-22T18:47:07.448Z,7.53
2018-09-22T18:52:06.040Z,7.80
2018-09-22T18:57:04.618Z,8.03
2018-09-22T19:02:05.992Z,6.90
2018-09-22T19:07:05.101Z,6.80
2018-09-22T19:12:05.248Z,8.03
2018-09-22T19:17:11.895Z,10.20
2018-09-22T19:22:15.081Z,7.33
2018-09-22T19:27:26.186Z,9.63
2018-09-22T19:32:32.399Z,8.93
2018-09-22T19:37:42.075Z,10.20
2018-09-22T19:42:48.117Z,14.70
2018-09-22T19:47:53.977Z,10.47
2018-09-22T19:52:52.747Z,12.10
2018-09-22T19:57:55.226Z,7.90
2018-09-22T20:02:54.363Z,12.70
2018-09-22T20:07:57.863Z,8.97
2018-09-22T20:12:57.542Z,7.00
2018-09-22T20:17:55.916Z,6.70
2018-09-22T20:22:54.801Z,8.47
2018-09-22T20:27:53.335Z,11.17
2018-09-22T20:32:52.898Z,11.33
2018-09-22T20:37:51.520Z,9.33
2018-09-22T20:42:53.574Z,13.60
2018-09-22T20:47:54.825Z,11.10
2018-09-22T20:52:53.628Z,16.80
2018-09-22T20:57:52.846Z,9.67
2018-09-22T21:02:51.189Z,9.20
2018-09-22T21:07:50.249Z,20.20
2018-09-22T21:12:50.461Z,8.13
2018-09-22T21:17:51.381Z,6.23
2018-09-22T21:22:53.557Z,16.07
2018-09-22T21:27:53.166Z,12.07
2018-09-22T21:32:52.409Z,11.87
2018-09-22T21:37:51.846Z,11.67
2018-09-22T21:42:51.289Z,11.20
2018-09-22T21:47:49.441Z,15.07
2018-09-22T21:52:47.767Z,16.30
2018-09-22T21:57:47.752Z,13.77
2018-09-22T22:02:46.105Z,14.63
2018-09-22T22:07:44.521Z,16.80
2018-09-22T22:12:46.830Z,15.60
2018-09-22T22:17:45.808Z,15.07
2018-09-22T22:22:44.361Z,14.53
2018-09-22T22:27:44.737Z,13.53
2018-09-22T22:32:45.548Z,14.63
2018-09-22T22:37:44.800Z,13.73
2018-09-22T22:42:43.225Z,17.90
2018-09-22T22:47:43.334Z,20.50
2018-09-22T22:52:43.928Z,16.93
2018-09-22T22:57:42.658Z,16.17
2018-09-22T23:02:46.106Z,21.07
2018-09-22T23:07:47.030Z,20.53
2018-09-22T23:12:46.158Z,19.30
2018-09-22T23:17:44.984Z,21.57
2018-09-22T23:22:44.197Z,21.80
2018-09-22T23:27:43.460Z,24.53
2018-09-22T23:32:42.626Z,25.77
2018-09-22T23:37:41.892Z,19.70
2018-09-22T23:42:42.241Z,23.50
2018-09-22T23:47:41.941Z,25.20
2018-09-22T23:52:40.589Z,22.70
2018-09-22T23:57:40.255Z,28.43
